createdAt,value
2018-12-22T00:01:47.666Z,31.53
2018-12-22T00:04:26.995Z,30.97
2018-12-22T00:07:05.854Z,24.43
2018-12-22T00:09:49.456Z,31.50
2018-12-22T00:12:27.728Z,24.53
2018-12-22T00:18:14.440Z,29.13
2018-12-22T00:20:54.507Z,34.23
2018-12-22T00:23:33.789Z,24.00
2018-12-22T00:26:08.984Z,36.63
2018-12-22T00:28:41.873Z,31.23
2018-12-22T00:31:13.984Z,28.47
2018-12-22T00:34:05.558Z,30.63
2018-12-22T00:36:56.171Z,30.87
2018-12-22T00:42:36.482Z,27.17
2018-12-22T00:45:21.987Z,36.60
2018-12-22T00:54:31.341Z,31.87
2018-12-22T01:00:07.070Z,25.30
2018-12-22T01:08:39.033Z,32.23
2018-12-22T01:11:16.376Z,37.97
2018-12-22T01:13:51.132Z,25.57
2018-12-22T01:16:26.677Z,28.00
2018-12-22T01:19:17.278Z,25.67
2018-12-22T01:24:53.969Z,31.90
2018-12-22T01:27:24.201Z,34.27
2018-12-22T01:29:54.782Z,38.70
2018-12-22T01:32:31.571Z,22.13
2018-12-22T01:35:08.101Z,32.60
2018-12-22T01:37:43.745Z,29.90
2018-12-22T01:40:14.782Z,32.43
2018-12-22T01:43:04.519Z,27.80
2018-12-22T01:45:42.425Z,21.30
2018-12-22T01:48:33.652Z,28.17
2018-12-22T01:51:23.813Z,28.20
2018-12-22T01:54:04.152Z,33.53
2018-12-22T01:56:38.517Z,33.27
2018-12-22T01:59:07.825Z,32.80
2018-12-22T02:04:25.566Z,28.87
2018-12-22T02:07:02.655Z,19.40
2018-12-22T02:09:36.090Z,28.17
2018-12-22T02:12:18.293Z,32.10
2018-12-22T02:17:36.113Z,29.93
2018-12-22T02:20:10.866Z,29.83
2018-12-22T02:22:40.901Z,25.27
2018-12-22T02:25:10.560Z,42.03
2018-12-22T02:27:44.074Z,29.77
2018-12-22T02:30:13.177Z,41.47
2018-12-22T02:32:47.543Z,32.80
2018-12-22T02:35:23.593Z,31.33
2018-12-22T02:38:02.219Z,30.67
2018-12-22T02:40:41.894Z,31.73
2018-12-22T02:43:13.747Z,35.53
2018-12-22T02:45:49.745Z,33.17
2018-12-22T02:48:26.627Z,33.97
2018-12-22T02:51:06.622Z,30.67
2018-12-22T02:53:43.253Z,34.93
2018-12-22T02:56:20.458Z,29.90
2018-12-22T02:59:05.672Z,28.43
2018-12-22T03:01:40.654Z,32.17
2018-12-22T03:04:16.556Z,32.77
2018-12-22T03:06:58.588Z,25.57
2018-12-22T03:09:39.053Z,23.27
2018-12-22T03:12:15.419Z,31.40
2018-12-22T03:14:54.264Z,41.80
2018-12-22T03:17:33.192Z,25.93
2018-12-22T03:20:07.474Z,36.00
2018-12-22T03:22:44.662Z,18.87
2018-12-22T03:25:17.414Z,31.30
2018-12-22T03:27:46.548Z,41.23
2018-12-22T03:30:22.520Z,17.80
2018-12-22T03:32:56.228Z,22.33
2018-12-22T03:35:31.953Z,16.87
2018-12-22T03:38:07.754Z,18.50
2018-12-22T03:40:42.438Z,24.90
2018-12-22T03:43:17.089Z,23.87
2018-12-22T03:45:51.667Z,20.43
2018-12-22T03:48:25.046Z,13.63
2018-12-22T03:50:58.058Z,17.93
2018-12-22T03:53:33.092Z,13.07
2018-12-22T03:56:13.548Z,14.63
2018-12-22T04:01:43.453Z,16.80
2018-12-22T04:04:16.093Z,23.80
2018-12-22T04:06:49.490Z,14.37
2018-12-22T04:09:23.595Z,21.97
2018-12-22T04:11:58.803Z,19.33
2018-12-22T04:14:33.690Z,15.63
2018-12-22T04:17:07.786Z,23.77
2018-12-22T04:19:43.755Z,30.47
2018-12-22T04:22:16.833Z,32.67
2018-12-22T04:24:52.441Z,25.23
2018-12-22T04:27:25.319Z,33.53
2018-12-22T04:29:59.410Z,27.50
2018-12-22T04:32:36.342Z,38.37
2018-12-22T04:35:13.195Z,21.40
2018-12-22T04:37:46.387Z,31.30
2018-12-22T04:40:21.687Z,21.37
2018-12-22T04:42:54.616Z,27.17
2018-12-22T04:45:30.466Z,30.70
2018-12-22T04:48:05.864Z,19.73
2018-12-22T04:50:41.858Z,22.90
2018-12-22T04:53:19.675Z,23.47
2018-12-22T04:55:55.852Z,20.77
2018-12-22T04:58:30.351Z,15.20
2018-12-22T05:01:17.761Z,12.43
2018-12-22T05:03:50.772Z,24.37
2018-12-22T05:06:23.258Z,19.83
2018-12-22T05:09:07.882Z,23.83
2018-12-22T05:11:42.210Z,15.20
2018-12-22T05:14:16.831Z,18.50
2018-12-22T05:16:53.481Z,11.97
2018-12-22T05:19:30.230Z,9.17
2018-12-22T05:22:05.931Z,17.57
2018-12-22T05:24:38.905Z,22.00
2018-12-22T05:27:18.289Z,21.07
2018-12-22T05:29:56.274Z,11.33
2018-12-22T05:32:29.551Z,19.53
2018-12-22T05:35:02.546Z,16.57
2018-12-22T05:37:35.693Z,14.97
2018-12-22T05:40:13.904Z,14.67
2018-12-22T05:42:49.741Z,11.60
2018-12-22T05:45:25.116Z,19.10
2018-12-22T05:47:58.745Z,13.30
2018-12-22T05:50:33.026Z,18.67
2018-12-22T05:53:08.564Z,19.63
2018-12-22T05:55:44.445Z,14.53
2018-12-22T05:58:20.479Z,21.17
2018-12-22T06:00:56.540Z,19.40
2018-12-22T06:03:29.420Z,10.23
2018-12-22T06:06:01.874Z,21.47
2018-12-22T06:08:34.383Z,15.40
2018-12-22T06:11:12.055Z,13.07
2018-12-22T06:13:44.325Z,12.93
2018-12-22T06:16:19.719Z,15.40
2018-12-22T06:18:53.563Z,17.10
2018-12-22T06:21:27.428Z,12.97
2018-12-22T06:29:08.698Z,13.77
2018-12-22T06:31:43.963Z,12.07
2018-12-22T06:34:18.627Z,5.60
2018-12-22T06:36:53.392Z,11.77
2018-12-22T06:39:32.140Z,11.97
2018-12-22T06:42:09.539Z,11.80
2018-12-22T06:44:56.881Z,8.27
2018-12-22T06:47:42.538Z,11.73
2018-12-22T07:01:52.621Z,6.37
2018-12-22T07:04:40.103Z,10.83
2018-12-22T07:10:10.030Z,10.17
2018-12-22T07:18:52.481Z,9.50
2018-12-22T07:21:33.043Z,6.80
2018-12-22T07:24:15.782Z,4.63
2018-12-22T07:27:03.734Z,11.13
2018-12-22T07:29:43.469Z,8.90
2018-12-22T07:35:27.824Z,7.97
2018-12-22T07:38:09.039Z,12.67
2018-12-22T07:40:47.721Z,7.27
2018-12-22T07:46:25.810Z,5.93
2018-12-22T07:49:10.728Z,11.23
2018-12-22T07:51:46.768Z,6.13
2018-12-22T07:54:35.749Z,6.47
2018-12-22T07:57:17.039Z,8.50
2018-12-22T07:59:53.673Z,4.93
2018-12-22T08:05:38.987Z,7.80
2018-12-22T08:08:18.465Z,5.23
2018-12-22T08:10:55.931Z,5.23
2018-12-22T08:13:31.851Z,5.97
2018-12-22T08:16:06.207Z,5.97
2018-12-22T08:18:43.908Z,5.50
2018-12-22T08:21:21.893Z,8.17
2018-12-22T08:24:14.472Z,5.77
2018-12-22T08:26:57.898Z,11.83
2018-12-22T08:29:38.163Z,13.43
2018-12-22T08:32:20.409Z,18.97
2018-12-22T08:35:01.394Z,20.33
2018-12-22T08:37:51.174Z,14.80
2018-12-22T08:40:34.851Z,20.67
2018-12-22T08:43:18.743Z,17.60
2018-12-22T08:45:57.475Z,11.70
2018-12-22T08:48:45.382Z,14.67
2018-12-22T08:51:24.054Z,10.27
2018-12-22T09:00:19.964Z,21.20
2018-12-22T09:12:10.822Z,15.70
2018-12-22T09:17:49.307Z,14.20
2018-12-22T09:20:31.822Z,41.87
2018-12-22T09:26:15.030Z,14.27
2018-12-22T09:41:40.361Z,18.67
2018-12-22T09:50:37.318Z,7.47
2018-12-22T10:20:38.173Z,11.90
2018-12-22T10:23:15.971Z,3.90
2018-12-22T10:38:13.043Z,8.57
2018-12-22T10:40:44.412Z,6.10
2018-12-22T10:46:20.748Z,9.87
2018-12-22T11:10:16.772Z,6.27
2018-12-22T11:13:27.508Z,6.93
2018-12-22T11:16:26.930Z,10.37
2018-12-22T11:19:06.064Z,6.27
2018-12-22T11:21:50.136Z,8.73
2018-12-22T11:24:26.642Z,9.33
2018-12-22T11:27:06.162Z,11.63
2018-12-22T11:29:42.882Z,6.83
2018-12-22T11:32:27.348Z,4.37
2018-12-22T11:35:01.513Z,6.17
2018-12-22T11:37:36.137Z,7.27
2018-12-22T11:40:12.618Z,6.03
2018-12-22T11:42:49.328Z,5.73
2018-12-22T11:45:30.163Z,5.70
2018-12-22T11:50:18.017Z,12.53
2018-12-22T11:56:07.865Z,8.67
2018-12-22T11:58:43.836Z,10.50
2018-12-22T12:04:11.273Z,6.43
2018-12-22T12:06:40.537Z,7.20
2018-12-22T12:09:19.596Z,10.63
2018-12-22T12:12:10.679Z,7.07
2018-12-22T12:14:42.030Z,10.23
2018-12-22T12:17:55.963Z,11.00
2018-12-22T12:20:31.435Z,8.17
2018-12-22T12:23:02.051Z,8.63
2018-12-22T12:25:33.645Z,9.67
2018-12-22T12:28:02.773Z,11.43
2018-12-22T12:30:32.298Z,9.60
2018-12-22T12:33:07.352Z,11.53
2018-12-22T12:35:50.671Z,9.57
2018-12-22T12:41:18.770Z,5.87
2018-12-22T12:43:48.411Z,10.97
2018-12-22T12:46:21.163Z,23.33
2018-12-22T12:48:52.820Z,13.47
2018-12-22T12:51:34.852Z,12.73
2018-12-22T12:54:04.713Z,11.57
2018-12-22T12:56:37.943Z,11.63
2018-12-22T12:59:08.541Z,21.43
2018-12-22T13:01:37.757Z,13.13
2018-12-22T13:04:12.067Z,21.90
2018-12-22T13:06:42.747Z,21.73
2018-12-22T13:09:15.735Z,12.30
2018-12-22T13:11:44.062Z,15.80
2018-12-22T13:14:17.021Z,20.97
2018-12-22T13:16:46.374Z,16.73
2018-12-22T13:19:18.098Z,14.90
2018-12-22T13:21:53.922Z,13.60
2018-12-22T13:24:24.781Z,13.03
2018-12-22T13:26:56.217Z,18.53
2018-12-22T13:29:26.673Z,11.23
2018-12-22T13:31:56.781Z,11.97
2018-12-22T13:34:26.965Z,9.33
2018-12-22T13:37:00.061Z,8.20
2018-12-22T13:39:58.852Z,10.67
2018-12-22T13:42:39.363Z,9.43
2018-12-22T13:45:08.982Z,8.43
2018-12-22T13:47:52.263Z,10.27
2018-12-22T13:54:57.519Z,10.60
2018-12-22T14:00:35.387Z,8.70
2018-12-22T14:03:15.573Z,11.63
2018-12-22T14:05:52.467Z,7.67
2018-12-22T14:08:22.475Z,14.77
2018-12-22T14:10:59.924Z,18.77
2018-12-22T14:13:43.478Z,10.37
2018-12-22T14:19:26.572Z,19.70
2018-12-22T14:22:09.552Z,7.80
2018-12-22T14:25:01.274Z,14.70
2018-12-22T14:30:16.693Z,15.50
2018-12-22T14:32:45.822Z,9.33
2018-12-22T14:35:31.262Z,14.87
2018-12-22T14:38:12.739Z,16.07
2018-12-22T14:40:45.935Z,12.53
2018-12-22T14:43:18.111Z,12.33
2018-12-22T14:45:48.740Z,10.37
2018-12-22T14:48:24.101Z,17.10
2018-12-22T14:51:05.317Z,31.97
2018-12-22T14:53:47.780Z,13.33
2018-12-22T14:56:25.604Z,10.10
2018-12-22T14:58:59.626Z,10.87
2018-12-22T15:04:33.820Z,12.60
2018-12-22T15:07:08.920Z,17.60
2018-12-22T15:09:44.355Z,15.93
2018-12-22T15:12:20.891Z,10.83
2018-12-22T15:18:00.991Z,14.03
2018-12-22T15:20:40.087Z,7.60
2018-12-22T15:23:15.594Z,9.53
2018-12-22T15:26:01.884Z,9.80
2018-12-22T15:28:47.026Z,14.07
2018-12-22T15:31:17.317Z,13.63
2018-12-22T15:33:53.059Z,9.13
2018-12-22T15:36:28.785Z,8.27
2018-12-22T15:39:07.235Z,9.43
2018-12-22T15:41:42.085Z,8.97
2018-12-22T15:44:27.873Z,11.63
2018-12-22T15:47:06.545Z,8.03
2018-12-22T15:49:42.216Z,8.40
2018-12-22T15:52:32.766Z,8.63
2018-12-22T15:55:10.848Z,12.13
2018-12-22T15:57:48.680Z,12.57
2018-12-22T16:00:35.043Z,11.87
2018-12-22T16:03:11.418Z,8.57
2018-12-22T16:05:47.735Z,9.43
2018-12-22T16:08:17.602Z,12.57
2018-12-22T16:10:51.321Z,9.17
2018-12-22T16:13:22.485Z,13.30
2018-12-22T16:15:59.003Z,18.40
2018-12-22T16:18:53.921Z,10.47
2018-12-22T16:21:29.075Z,12.43
2018-12-22T16:24:07.799Z,13.50
2018-12-22T16:26:38.768Z,13.07
2018-12-22T16:29:31.819Z,15.10
2018-12-22T16:32:16.580Z,7.33
2018-12-22T16:34:54.299Z,10.43
2018-12-22T16:37:30.062Z,13.10
2018-12-22T16:40:26.574Z,6.43
2018-12-22T16:43:04.556Z,14.20
2018-12-22T16:45:40.516Z,12.30
2018-12-22T16:48:30.336Z,7.67
2018-12-22T16:51:08.603Z,17.27
2018-12-22T16:56:48.844Z,19.53
2018-12-22T16:59:32.292Z,16.63
2018-12-22T17:02:25.426Z,8.37
2018-12-22T17:04:58.327Z,14.20
2018-12-22T17:07:32.262Z,16.40
2018-12-22T17:13:04.292Z,15.80
2018-12-22T17:15:40.776Z,12.77
2018-12-22T17:18:16.730Z,27.80
2018-12-22T17:21:11.835Z,13.70
2018-12-22T17:23:51.541Z,17.17
2018-12-22T17:26:23.605Z,13.03
2018-12-22T17:28:54.884Z,16.93
2018-12-22T17:31:38.014Z,12.23
2018-12-22T17:34:18.603Z,12.80
2018-12-22T17:37:01.016Z,18.37
2018-12-22T17:39:53.517Z,13.07
2018-12-22T17:42:34.853Z,12.40
2018-12-22T17:45:14.139Z,13.43
2018-12-22T17:47:44.621Z,16.53
2018-12-22T17:50:16.525Z,19.37
2018-12-22T17:52:46.249Z,20.13
2018-12-22T17:55:19.441Z,15.10
2018-12-22T17:58:00.961Z,25.50
2018-12-22T18:00:35.876Z,19.23
2018-12-22T18:03:10.841Z,26.90
2018-12-22T18:06:03.953Z,17.60
2018-12-22T18:08:33.557Z,24.10
2018-12-22T18:11:09.471Z,10.67
2018-12-22T18:13:45.433Z,21.60
2018-12-22T18:16:22.045Z,17.93
2018-12-22T18:19:15.754Z,19.53
2018-12-22T18:21:57.623Z,28.77
2018-12-22T18:24:44.289Z,21.17
2018-12-22T18:27:22.049Z,22.97
2018-12-22T18:30:14.430Z,17.33
2018-12-22T18:32:53.470Z,21.97
2018-12-22T18:35:25.687Z,22.30
2018-12-22T18:38:00.864Z,17.77
2018-12-22T18:40:33.162Z,15.30
2018-12-22T18:43:07.350Z,25.63
2018-12-22T18:45:38.295Z,11.40
2018-12-22T18:48:17.408Z,12.50
2018-12-22T18:51:06.628Z,24.77
2018-12-22T18:53:52.944Z,24.43
2018-12-22T18:59:43.606Z,19.57
2018-12-22T19:11:12.183Z,31.40
2018-12-22T19:13:56.179Z,22.60
2018-12-22T19:22:41.524Z,39.33
2018-12-22T19:25:26.125Z,40.80
2018-12-22T19:31:16.402Z,41.53
2018-12-22T19:33:58.330Z,42.53
2018-12-22T19:36:36.605Z,37.43
2018-12-22T19:39:12.464Z,25.73
2018-12-22T19:42:01.681Z,52.80
2018-12-22T19:50:30.035Z,29.60
2018-12-22T19:53:04.794Z,37.83
2018-12-22T20:01:27.763Z,34.17
2018-12-22T20:04:13.699Z,45.03
2018-12-22T20:09:54.984Z,35.37
2018-12-22T20:12:28.816Z,24.27
2018-12-22T20:15:03.834Z,29.13
2018-12-22T20:17:38.311Z,37.23
2018-12-22T20:20:09.010Z,33.70
2018-12-22T20:22:46.694Z,28.57
2018-12-22T20:37:03.924Z,42.23
2018-12-22T20:39:42.004Z,20.40
2018-12-22T20:42:45.908Z,20.57
2018-12-22T20:51:51.758Z,30.97
2018-12-22T21:00:39.129Z,28.47
2018-12-22T21:06:02.925Z,32.53
2018-12-22T21:08:52.317Z,35.60
2018-12-22T21:11:50.103Z,33.23
2018-12-22T21:17:28.617Z,36.70
2018-12-22T21:20:47.534Z,35.30
2018-12-22T21:48:08.454Z,22.27
2018-12-22T21:54:08.331Z,12.60
2018-12-22T21:56:54.384Z,21.37
2018-12-22T21:59:34.558Z,20.43
2018-12-22T22:43:59.740Z,16.63
2018-12-22T22:46:38.705Z,16.70
2018-12-22T22:49:19.889Z,14.67
2018-12-22T22:51:51.984Z,12.23
2018-12-22T22:54:33.732Z,8.30
2018-12-22T22:57:13.041Z,12.47
2018-12-22T22:59:50.263Z,13.80
2018-12-22T23:02:25.086Z,16.30
2018-12-22T23:05:03.259Z,20.67
2018-12-22T23:07:41.293Z,23.07
2018-12-22T23:10:30.650Z,33.17
2018-12-22T23:13:10.057Z,18.43
2018-12-22T23:15:47.345Z,31.17
2018-12-22T23:18:34.837Z,26.83
2018-12-22T23:21:17.653Z,25.53
2018-12-22T23:26:57.748Z,27.30
2018-12-22T23:32:38.782Z,29.50
2018-12-22T23:35:16.591Z,32.13
2018-12-22T23:38:04.559Z,30.80
2018-12-22T23:43:49.413Z,22.10
2018-12-22T23:46:26.249Z,21.27
2018-12-22T23:52:12.129Z,38.53
2018-12-22T23:57:59.024Z,28.23
